createdAt,value
2022-07-29T00:01:20.117Z,100.00
2022-07-29T00:06:22.995Z,100.00
2022-07-29T00:11:26.038Z,100.00
2022-07-29T00:16:30.342Z,100.00
2022-07-29T00:21:33.204Z,100.00
2022-07-29T00:26:36.179Z,100.00
2022-07-29T00:31:40.507Z,100.00
2022-07-29T00:36:43.589Z,100.00
2022-07-29T00:41:46.418Z,100.00
2022-07-29T00:46:50.737Z,100.00
2022-07-29T00:51:53.689Z,100.00
2022-07-29T00:56:57.002Z,100.00
2022-07-29T01:02:01.313Z,100.00
2022-07-29T01:07:04.979Z,100.00
2022-07-29T01:12:08.851Z,100.00
2022-07-29T01:17:18.491Z,100.00
2022-07-29T01:22:29.124Z,100.00
2022-07-29T01:28:08.936Z,100.00
2022-07-29T01:33:38.952Z,100.00
2022-07-29T01:38:46.566Z,100.00
2022-07-29T01:43:53.702Z,100.00
2022-07-29T01:49:02.354Z,100.00
2022-07-29T01:54:10.770Z,100.00
2022-07-29T01:59:13.885Z,100.00
2022-07-29T02:04:19.155Z,100.00
2022-07-29T02:09:34.331Z,100.00
2022-07-29T02:14:47.410Z,100.00
2022-07-29T02:19:52.343Z,100.00
2022-07-29T02:24:57.948Z,100.00
2022-07-29T02:30:03.027Z,100.00
2022-07-29T02:35:09.696Z,100.00
2022-07-29T02:40:13.856Z,100.00
2022-07-29T02:45:17.020Z,100.00
2022-07-29T02:50:24.799Z,100.00
2022-07-29T02:55:32.692Z,100.00
2022-07-29T03:00:39.480Z,100.00
2022-07-29T03:05:43.733Z,100.00
2022-07-29T03:10:48.095Z,100.00
2022-07-29T03:15:51.398Z,100.00
2022-07-29T03:20:56.261Z,100.00
2022-07-29T03:25:59.088Z,100.00
2022-07-29T03:31:01.924Z,100.00
2022-07-29T03:36:06.536Z,100.00
2022-07-29T03:41:12.249Z,100.00
2022-07-29T03:46:16.498Z,100.00
2022-07-29T03:51:33.322Z,100.00
2022-07-29T03:56:40.533Z,100.00
2022-07-29T04:01:43.962Z,100.00
2022-07-29T04:06:48.594Z,100.00
2022-07-29T04:12:01.465Z,100.00
2022-07-29T04:17:07.124Z,100.00
2022-07-29T04:22:11.348Z,100.00
2022-07-29T04:27:16.287Z,100.00
2022-07-29T04:32:19.169Z,100.00
2022-07-29T04:37:23.444Z,100.00
2022-07-29T04:42:27.785Z,100.00
2022-07-29T04:47:32.331Z,100.00
2022-07-29T04:52:36.677Z,100.00
2022-07-29T04:57:39.456Z,100.00
2022-07-29T05:02:42.434Z,100.00
2022-07-29T05:07:46.674Z,100.00
2022-07-29T05:12:50.619Z,100.00
2022-07-29T05:17:53.488Z,100.00
2022-07-29T05:22:58.524Z,100.00
2022-07-29T05:28:01.493Z,100.00
2022-07-29T05:33:04.372Z,100.00
2022-07-29T05:38:08.562Z,100.00
2022-07-29T05:43:11.397Z,100.00
2022-07-29T05:48:14.283Z,100.00
2022-07-29T05:53:19.118Z,100.00
2022-07-29T05:58:23.265Z,100.00
2022-07-29T06:03:26.032Z,100.00
2022-07-29T06:08:30.255Z,100.00
2022-07-29T06:13:33.273Z,100.00
2022-07-29T06:18:36.087Z,100.00
2022-07-29T06:23:41.080Z,100.00
2022-07-29T06:28:43.942Z,100.00
2022-07-29T06:33:46.745Z,100.00
2022-07-29T06:38:52.043Z,100.00
2022-07-29T06:43:55.341Z,100.00
2022-07-29T06:49:01.579Z,100.00
2022-07-29T06:54:06.625Z,100.00
2022-07-29T06:59:10.765Z,100.00
2022-07-29T07:04:14.562Z,100.00
2022-07-29T07:09:19.283Z,100.00
2022-07-29T07:14:30.366Z,100.00
2022-07-29T07:19:33.508Z,100.00
2022-07-29T07:24:38.873Z,100.00
2022-07-29T07:29:44.125Z,100.00
2022-07-29T07:34:47.293Z,100.00
2022-07-29T07:39:51.467Z,100.00
2022-07-29T07:45:12.658Z,100.00
2022-07-29T07:50:19.183Z,100.00
2022-07-29T07:55:23.821Z,100.00
2022-07-29T08:00:26.683Z,100.00
2022-07-29T08:05:29.560Z,100.00
2022-07-29T08:10:51.986Z,100.00
2022-07-29T08:15:59.955Z,100.00
2022-07-29T08:21:02.790Z,100.00
2022-07-29T08:26:11.241Z,100.00
2022-07-29T08:31:15.097Z,100.00
2022-07-29T08:36:18.090Z,100.00
2022-07-29T08:41:22.381Z,100.00
2022-07-29T08:46:25.921Z,100.00
2022-07-29T08:51:29.722Z,100.00
2022-07-29T08:56:34.351Z,100.00
2022-07-29T09:01:42.886Z,100.00
2022-07-29T09:06:50.281Z,100.00
2022-07-29T09:11:55.048Z,100.00
2022-07-29T09:16:58.538Z,100.00
2022-07-29T09:22:03.866Z,100.00
2022-07-29T09:27:20.822Z,100.00
2022-07-29T09:32:23.680Z,100.00
2022-07-29T09:37:30.512Z,100.00
2022-07-29T09:42:34.825Z,100.00
2022-07-29T09:47:45.864Z,100.00
2022-07-29T09:52:50.790Z,100.00
2022-07-29T09:57:55.378Z,100.00
2022-07-29T10:03:03.488Z,100.00
2022-07-29T10:08:07.158Z,92.03
2022-07-29T10:13:15.663Z,89.70
2022-07-29T10:18:20.895Z,85.22
2022-07-29T10:23:23.693Z,89.13
2022-07-29T10:28:28.322Z,85.05
2022-07-29T10:33:43.588Z,77.38
2022-07-29T10:38:51.421Z,83.49
2022-07-29T10:43:57.614Z,79.18
2022-07-29T10:49:08.070Z,83.98
2022-07-29T10:54:11.047Z,85.32
2022-07-29T10:59:36.118Z,90.62
2022-07-29T11:05:02.200Z,94.33
2022-07-29T11:10:31.028Z,83.54
2022-07-29T11:15:54.543Z,82.30
2022-07-29T11:20:58.256Z,85.95
2022-07-29T11:26:25.807Z,82.03
2022-07-29T11:31:39.293Z,81.43
2022-07-29T11:37:17.691Z,84.54
2022-07-29T11:42:42.012Z,81.17
2022-07-29T11:48:05.336Z,90.76
2022-07-29T11:53:22.247Z,86.11
2022-07-29T11:58:25.995Z,83.29
2022-07-29T12:03:35.157Z,77.68
2022-07-29T12:08:43.795Z,79.64
2022-07-29T12:13:46.984Z,83.79
2022-07-29T12:19:00.079Z,84.16
2022-07-29T12:24:08.795Z,84.44
2022-07-29T12:29:20.087Z,83.78
2022-07-29T12:34:38.022Z,91.58
2022-07-29T12:39:41.220Z,91.09
2022-07-29T12:44:48.632Z,86.37
2022-07-29T12:49:53.360Z,74.70
2022-07-29T12:54:56.199Z,82.17
2022-07-29T13:00:03.944Z,72.98
2022-07-29T13:05:10.197Z,75.56
2022-07-29T13:10:15.882Z,76.20
2022-07-29T13:15:20.509Z,89.09
2022-07-29T13:20:30.498Z,98.72
2022-07-29T13:25:35.346Z,100.00
2022-07-29T13:30:38.664Z,96.89
2022-07-29T13:35:49.519Z,95.66
2022-07-29T13:40:52.728Z,93.75
2022-07-29T13:45:55.700Z,91.76
2022-07-29T13:51:00.982Z,95.46
2022-07-29T13:56:03.884Z,89.43
2022-07-29T14:01:06.806Z,91.87
2022-07-29T14:06:11.149Z,93.28
2022-07-29T14:11:14.003Z,92.05
2022-07-29T14:16:18.991Z,84.89
2022-07-29T14:21:23.258Z,74.96
2022-07-29T14:26:28.570Z,91.20
2022-07-29T14:31:31.628Z,87.50
2022-07-29T14:36:35.983Z,93.62
2022-07-29T14:41:39.114Z,94.75
2022-07-29T14:46:42.292Z,89.69
2022-07-29T14:51:52.108Z,88.11
2022-07-29T14:56:57.929Z,90.60
2022-07-29T15:02:01.476Z,92.63
2022-07-29T15:07:06.185Z,88.00
2022-07-29T15:12:11.382Z,91.41
2022-07-29T15:17:14.327Z,88.50
2022-07-29T15:22:18.634Z,90.35
2022-07-29T15:27:21.516Z,90.49
2022-07-29T15:32:24.355Z,87.84
2022-07-29T15:37:29.315Z,85.52
2022-07-29T15:42:53.999Z,79.10
2022-07-29T15:47:56.855Z,81.08
2022-07-29T15:53:01.292Z,84.11
2022-07-29T15:58:04.348Z,88.73
2022-07-29T16:03:14.229Z,93.75
2022-07-29T16:08:18.371Z,93.90
2022-07-29T16:13:21.228Z,91.75
2022-07-29T16:18:29.816Z,88.71
2022-07-29T16:23:34.819Z,89.80
2022-07-29T16:28:37.660Z,90.53
2022-07-29T16:33:54.851Z,88.49
2022-07-29T16:39:00.291Z,88.13
2022-07-29T16:44:03.291Z,88.04
2022-07-29T16:49:06.320Z,85.72
2022-07-29T16:54:10.964Z,83.64
2022-07-29T16:59:13.829Z,87.89
2022-07-29T17:04:16.660Z,86.73
2022-07-29T17:09:21.081Z,88.93
2022-07-29T17:14:25.533Z,89.11
2022-07-29T17:19:28.388Z,91.23
2022-07-29T17:24:32.509Z,94.49
2022-07-29T17:29:35.961Z,96.61
2022-07-29T17:34:43.484Z,97.48
2022-07-29T17:39:48.315Z,97.46
2022-07-29T17:44:55.811Z,97.00
2022-07-29T17:49:59.782Z,98.75
2022-07-29T17:55:04.002Z,99.36
2022-07-29T18:00:08.595Z,100.00
2022-07-29T18:05:11.586Z,100.00
2022-07-29T18:10:15.802Z,100.00
2022-07-29T18:15:18.683Z,100.00
2022-07-29T18:20:21.545Z,100.00
2022-07-29T18:25:26.608Z,100.00
2022-07-29T18:30:29.596Z,100.00
2022-07-29T18:35:33.709Z,100.00
2022-07-29T18:40:39.951Z,100.00
2022-07-29T18:45:42.775Z,100.00
2022-07-29T18:50:45.577Z,100.00
2022-07-29T18:55:49.740Z,100.00
2022-07-29T19:00:52.610Z,100.00
2022-07-29T19:05:55.473Z,100.00
2022-07-29T19:11:02.452Z,100.00
2022-07-29T19:16:06.115Z,100.00
2022-07-29T19:21:09.107Z,100.00
2022-07-29T19:26:13.291Z,100.00
2022-07-29T19:31:23.706Z,100.00
2022-07-29T19:36:27.275Z,100.00
2022-07-29T19:41:31.650Z,100.00
2022-07-29T19:46:34.663Z,100.00
2022-07-29T19:51:37.647Z,100.00
2022-07-29T19:56:42.241Z,100.00
2022-07-29T20:01:45.261Z,100.00
2022-07-29T20:06:53.088Z,100.00
2022-07-29T20:11:58.313Z,100.00
2022-07-29T20:17:01.490Z,100.00
2022-07-29T20:22:05.885Z,100.00
2022-07-29T20:27:13.642Z,100.00
2022-07-29T20:32:19.373Z,100.00
2022-07-29T20:37:22.213Z,100.00
2022-07-29T20:42:26.361Z,100.00
2022-07-29T20:47:31.756Z,100.00
2022-07-29T20:52:34.747Z,100.00
2022-07-29T20:57:40.011Z,100.00
2022-07-29T21:02:43.057Z,100.00
2022-07-29T21:07:45.857Z,100.00
2022-07-29T21:12:49.974Z,100.00
2022-07-29T21:18:00.504Z,100.00
2022-07-29T21:23:03.338Z,100.00
2022-07-29T21:28:25.301Z,100.00
2022-07-29T21:33:30.407Z,100.00
2022-07-29T21:38:33.898Z,100.00
2022-07-29T21:43:38.216Z,100.00
2022-07-29T21:48:45.353Z,100.00
2022-07-29T21:53:48.245Z,100.00
2022-07-29T21:58:54.661Z,100.00
2022-07-29T22:03:58.033Z,100.00
2022-07-29T22:09:03.475Z,100.00
2022-07-29T22:14:08.023Z,100.00
2022-07-29T22:19:10.835Z,100.00
2022-07-29T22:24:13.610Z,100.00
2022-07-29T22:29:18.891Z,100.00
2022-07-29T22:34:21.729Z,100.00
2022-07-29T22:39:25.129Z,100.00
2022-07-29T22:44:29.264Z,100.00
2022-07-29T22:49:32.501Z,100.00
2022-07-29T22:54:35.285Z,100.00
2022-07-29T22:59:40.436Z,100.00
2022-07-29T23:04:43.847Z,100.00
2022-07-29T23:09:46.655Z,100.00
2022-07-29T23:14:51.932Z,100.00
2022-07-29T23:19:54.749Z,100.00
2022-07-29T23:24:57.505Z,100.00
2022-07-29T23:30:01.620Z,100.00
2022-07-29T23:35:06.878Z,100.00
2022-07-29T23:40:14.496Z,100.00
2022-07-29T23:45:19.008Z,100.00
2022-07-29T23:50:21.814Z,100.00
2022-07-29T23:55:36.710Z,100.00
